Observations for Trim Patrick St
| Time | AQI | Temp °C | Hum % | Pres Pa | CO μg/m³ | H₂S μg/m³ | NO μg/m³ | NO₂ μg/m³ | O₃ μg/m³ | SO₂ μg/m³ | PM1 μg/m³ | PM2.5 μg/m³ | PM10 μg/m³ |
|---|---|---|---|---|---|---|---|---|---|---|---|---|---|
| Friday 7 August 2026 | |||||||||||||
| 14:44 | 2 | 28.7 | 34 | 69,155 | 0 | 0 | 1.2 | 12.65 | 74.72 | 10.51 | 3.71 | 9.82 | 10.8 |
| 14:43 | 2 | 28.6 | 35 | 69,159 | 0 | 0 | 1.15 | 12.11 | 73.95 | 10.04 | 2.86 | 9.77 | 10.75 |
| 14:42 | 2 | 28.5 | 35 | 69,167 | 0 | 0 | 1.2 | 13.16 | 92.16 | 10.64 | 3.71 | 9.77 | 10.74 |
| 14:41 | 2 | 28.3 | 35 | 69,149 | 0 | 0 | 1.31 | 14.08 | 89.49 | 9.23 | 3.71 | 9.76 | 10.73 |
| 14:40 | 2 | 28.2 | 34 | 69,159 | 0 | 0 | 1.4 | 11.55 | 68.52 | 9.78 | 2 | 8.19 | 9.01 |
| 14:37 | 2 | 27.8 | 37 | 69,090 | 0 | 0 | 1.39 | 12.29 | 77.67 | 9.65 | 2.86 | 8.84 | 9.73 |
| 14:36 | 2 | 27.6 | 36 | 69,086 | 0 | 0 | 1.48 | 11.81 | 79.16 | 9.35 | 3.71 | 9.67 | 10.64 |
| 14:35 | 2 | 27.5 | 37 | 69,074 | 0 | 3.19 | 1.45 | 11.92 | 78.36 | 9.51 | 2 | 8.04 | 8.85 |
| 14:34 | 2 | 27.4 | 37 | 69,033 | 0 | 7.33 | 1.47 | 13.71 | 100.02 | 10.19 | 2 | 8.03 | 8.83 |
| 14:33 | 2 | 27.2 | 38 | 69,002 | 0 | 9.54 | 1.45 | 13.8 | 94.36 | 10.17 | 2 | 7.97 | 8.77 |
| 14:32 | 2 | 27.1 | 37 | 69,029 | 0 | 8.69 | 1.44 | 16.75 | 103.01 | 10.5 | 2 | 8.8 | 9.68 |
| 14:29 | 2 | 27 | 37 | 69,016 | 0 | 10.59 | 1.3 | 12.48 | 103.8 | 11.14 | 2.86 | 8.82 | 9.7 |
| 14:28 | 2 | 27.1 | 37 | 69,023 | 0 | 6.82 | 1.21 | 15.11 | 93.55 | 10.61 | 2 | 8.04 | 8.84 |
| 14:27 | 2 | 27.1 | 36 | 69,029 | 0 | 4.93 | 1.23 | 10.94 | 81.13 | 11.09 | 2.86 | 9.68 | 10.65 |
| 14:26 | 2 | 27.2 | 36 | 69,039 | 0 | 3.29 | 1.45 | 12.5 | 93.13 | 10.31 | 2 | 8.06 | 8.86 |
| 14:25 | 2 | 27.3 | 36 | 69,053 | 0 | 3.15 | 1.61 | 11.67 | 83.91 | 11.01 | 3.71 | 9.69 | 10.66 |
| 14:22 | 2 | 27.5 | 36 | 69,069 | 0 | 2.71 | 1.51 | 11.23 | 103.03 | 11.4 | 2 | 8.89 | 9.78 |
| 14:21 | 2 | 27.5 | 35 | 69,061 | 0 | 0.47 | 1.56 | 10.84 | 81.04 | 10.43 | 2.86 | 8.92 | 9.81 |
| 14:20 | 2 | 27.6 | 35 | 69,049 | 0 | 0.54 | 1.57 | 11.7 | 99.67 | 10.7 | 2.86 | 8.95 | 9.84 |
| 14:19 | 2 | 27.6 | 35 | 69,033 | 0 | 0 | 1.58 | 11.45 | 74.72 | 10.19 | 2 | 8.16 | 8.98 |